Dongen, Netherlands
Current Conditions -  °F | °C
As of 6:55 PM on Saturday 25 Oct 2014 (Local Time) from EHGR Reporting Station
Overcast Overcast  
Wind Chill: 54°   Ceiling: 4100
Heat Index: 54°   Visibility: 6mi
Dew Point: 48°   Wind: 3mph
Humidity: 82%   Direction: 190°S
Pressure: 30.12"   Gusts: NA
Location:  51.63°N, 4.94°E
Report Text: EHGR 251655Z AUTO 19003KT 9999 OVC041 12/09 Q1020 BLU
Loading
Personal Weather Stations






























Interactive Weather Map
Tropical Storm Tracking
New forecast layout! Learn more

10-Day Weather Forecast

Advertisements
Track Severe Weather on mobile